createdAt,value
2024-03-05T00:00:12.041Z,71.94
2024-03-05T00:01:11.446Z,73.06
2024-03-05T00:02:11.521Z,74.86
2024-03-05T00:03:11.331Z,74.76
2024-03-05T00:04:11.296Z,73.33
2024-03-05T00:05:11.317Z,73.64
2024-03-05T00:06:11.336Z,73.13
2024-03-05T00:07:11.464Z,73.43
2024-03-05T00:08:11.239Z,72.99
2024-03-05T00:09:11.209Z,72.45
2024-03-05T00:10:11.283Z,71.80
2024-03-05T00:11:11.350Z,71.87
2024-03-05T00:12:11.276Z,73.36
2024-03-05T00:13:11.215Z,74.18
2024-03-05T00:14:11.176Z,73.88
2024-03-05T00:15:11.201Z,73.97
2024-03-05T00:16:11.171Z,74.08
2024-03-05T00:17:11.165Z,74.04
2024-03-05T00:18:11.220Z,74.28
2024-03-05T00:19:11.187Z,75.34
2024-03-05T00:20:12.089Z,74.99
2024-03-05T00:21:11.082Z,73.60
2024-03-05T00:22:11.163Z,73.74
2024-03-05T00:23:11.131Z,74.25
2024-03-05T00:24:11.044Z,74.08
2024-03-05T00:25:11.141Z,74.18
2024-03-05T00:26:11.996Z,74.96
2024-03-05T00:27:11.102Z,75.40
2024-03-05T00:28:11.064Z,74.11
2024-03-05T00:29:11.008Z,72.96
2024-03-05T00:30:10.971Z,72.72
2024-03-05T00:31:11.079Z,74.18
2024-03-05T00:32:10.990Z,74.04
2024-03-05T00:33:10.967Z,73.60
2024-03-05T00:34:11.008Z,72.86
2024-03-05T00:35:11.222Z,72.65
2024-03-05T00:36:10.962Z,71.91
2024-03-05T00:37:10.978Z,70.82
2024-03-05T00:38:18.386Z,70.75
2024-03-05T00:39:11.869Z,70.42
2024-03-05T00:40:10.899Z,70.75
2024-03-05T00:41:10.901Z,70.96
2024-03-05T00:42:10.867Z,71.33
2024-03-05T00:43:10.963Z,73.43
2024-03-05T00:44:10.905Z,74.90
2024-03-05T00:45:10.918Z,74.69
2024-03-05T00:46:10.819Z,74.76
2024-03-05T00:47:10.795Z,74.45
2024-03-05T00:48:10.869Z,74.55
2024-03-05T00:49:13.542Z,74.96
2024-03-05T00:50:10.746Z,74.55
2024-03-05T00:51:10.724Z,74.76
2024-03-05T00:52:11.051Z,75.30
2024-03-05T00:53:10.761Z,75.47
2024-03-05T00:54:10.755Z,74.82
2024-03-05T00:55:10.741Z,74.48
2024-03-05T00:56:10.739Z,73.47
2024-03-05T00:57:10.740Z,73.43
2024-03-05T00:58:10.756Z,72.92
2024-03-05T00:59:10.669Z,73.36
2024-03-05T01:00:10.735Z,73.67
2024-03-05T01:01:10.658Z,73.67
2024-03-05T01:02:10.747Z,73.84
2024-03-05T01:03:10.638Z,72.99
2024-03-05T01:04:10.719Z,72.48
2024-03-05T01:05:10.687Z,71.87
2024-03-05T01:06:10.601Z,71.84
2024-03-05T01:07:10.630Z,72.08
2024-03-05T01:08:10.546Z,72.31
2024-03-05T01:09:10.585Z,73.26
2024-03-05T01:10:11.021Z,74.65
2024-03-05T01:11:10.657Z,75.13
2024-03-05T01:12:10.556Z,74.28
2024-03-05T01:13:10.544Z,73.50
2024-03-05T01:14:10.533Z,72.48
2024-03-05T01:15:10.537Z,72.38
2024-03-05T01:16:10.533Z,72.38
2024-03-05T01:17:10.491Z,72.58
2024-03-05T01:18:10.506Z,72.17
2024-03-05T01:19:10.416Z,72.58
2024-03-05T01:20:10.452Z,72.25
2024-03-05T01:21:10.410Z,71.64
2024-03-05T01:22:10.459Z,71.84
2024-03-05T01:23:10.395Z,71.94
2024-03-05T01:24:10.381Z,71.94
2024-03-05T01:25:10.413Z,71.80
2024-03-05T01:26:10.417Z,71.91
2024-03-05T01:27:10.398Z,71.40
2024-03-05T01:28:10.375Z,71.09
2024-03-05T01:29:10.299Z,71.30
2024-03-05T01:30:10.331Z,71.50
2024-03-05T01:31:10.286Z,71.40
2024-03-05T01:32:10.312Z,71.60
2024-03-05T01:33:10.325Z,70.99
2024-03-05T01:34:10.281Z,71.09
2024-03-05T01:35:10.229Z,71.23
2024-03-05T01:36:10.248Z,72.08
2024-03-05T01:37:10.245Z,72.04
2024-03-05T01:38:10.252Z,71.64
2024-03-05T01:39:10.205Z,72.41
2024-03-05T01:40:10.300Z,73.23
2024-03-05T01:41:10.189Z,73.23
2024-03-05T01:42:10.291Z,73.67
2024-03-05T01:43:10.204Z,74.48
2024-03-05T01:44:10.166Z,73.97
2024-03-05T01:45:10.164Z,74.28
2024-03-05T01:46:10.126Z,74.08
2024-03-05T01:47:10.080Z,74.15
2024-03-05T01:48:10.180Z,73.60
2024-03-05T01:49:10.144Z,73.19
2024-03-05T01:50:10.161Z,73.09
2024-03-05T01:51:10.103Z,72.55
2024-03-05T01:52:10.108Z,72.55
2024-03-05T01:53:10.073Z,72.34
2024-03-05T01:54:10.048Z,72.55
2024-03-05T01:55:10.016Z,72.04
2024-03-05T01:56:10.084Z,72.14
2024-03-05T01:57:10.134Z,72.69
2024-03-05T01:58:09.969Z,72.25
2024-03-05T01:59:10.038Z,72.25
2024-03-05T02:00:10.003Z,72.04
2024-03-05T02:01:10.005Z,72.17
2024-03-05T02:02:10.121Z,72.48
2024-03-05T02:03:09.974Z,72.69
2024-03-05T02:04:09.949Z,73.13
2024-03-05T02:05:09.974Z,73.09
2024-03-05T02:06:09.931Z,72.99
2024-03-05T02:07:09.938Z,72.69
2024-03-05T02:08:09.914Z,72.48
2024-03-05T02:09:09.928Z,72.48
2024-03-05T02:10:09.915Z,72.89
2024-03-05T02:11:10.025Z,73.09
2024-03-05T02:12:09.910Z,72.99
2024-03-05T02:13:09.803Z,73.30
2024-03-05T02:14:09.876Z,73.43
2024-03-05T02:15:09.818Z,73.30
2024-03-05T02:16:09.817Z,73.30
2024-03-05T02:17:09.788Z,73.09
2024-03-05T02:18:09.876Z,73.09
2024-03-05T02:19:09.782Z,73.54
2024-03-05T02:20:09.763Z,73.23
2024-03-05T02:21:09.739Z,72.99
2024-03-05T02:22:09.728Z,72.89
2024-03-05T02:23:09.714Z,72.69
2024-03-05T02:24:09.733Z,72.92
2024-03-05T02:25:09.708Z,73.67
2024-03-05T02:26:09.748Z,73.97
2024-03-05T02:27:12.061Z,74.08
2024-03-05T02:28:09.709Z,73.84
2024-03-05T02:29:09.633Z,73.97
2024-03-05T02:30:09.661Z,74.72
2024-03-05T02:31:09.617Z,74.82
2024-03-05T02:32:09.582Z,74.58
2024-03-05T02:33:09.679Z,74.52
2024-03-05T02:34:09.646Z,74.82
2024-03-05T02:35:09.592Z,74.79
2024-03-05T02:36:09.573Z,74.28
2024-03-05T02:37:09.525Z,74.28
2024-03-05T02:38:09.535Z,74.18
2024-03-05T02:39:09.577Z,74.52
2024-03-05T02:40:09.504Z,75.16
2024-03-05T02:41:09.514Z,75.78
2024-03-05T02:42:09.452Z,75.47
2024-03-05T02:43:09.489Z,75.78
2024-03-05T02:44:09.433Z,76.56
2024-03-05T02:45:09.472Z,76.73
2024-03-05T02:46:09.460Z,76.32
2024-03-05T02:47:09.477Z,76.76
2024-03-05T02:48:09.493Z,76.28
2024-03-05T02:49:09.378Z,75.78
2024-03-05T02:50:09.407Z,76.42
2024-03-05T02:51:09.385Z,75.84
2024-03-05T02:52:09.364Z,75.23
2024-03-05T02:53:09.382Z,74.38
2024-03-05T02:54:09.332Z,74.08
2024-03-05T02:55:09.400Z,73.84
2024-03-05T02:56:09.357Z,73.67
2024-03-05T02:57:09.318Z,74.21
2024-03-05T02:58:09.298Z,75.06
2024-03-05T02:59:09.314Z,75.33
2024-03-05T03:00:09.253Z,74.82
2024-03-05T03:01:09.300Z,74.18
2024-03-05T03:02:09.265Z,73.77
2024-03-05T03:03:09.215Z,73.97
2024-03-05T03:04:09.270Z,75.16
2024-03-05T03:05:09.232Z,75.57
2024-03-05T03:06:09.284Z,75.27
2024-03-05T03:07:09.204Z,74.93
2024-03-05T03:08:09.146Z,74.65
2024-03-05T03:09:09.168Z,75.13
2024-03-05T03:10:09.158Z,74.38
2024-03-05T03:11:09.309Z,73.57
2024-03-05T03:12:09.119Z,74.21
2024-03-05T03:13:09.159Z,74.35
2024-03-05T03:14:09.138Z,74.72
2024-03-05T03:15:09.113Z,74.52
2024-03-05T03:16:09.118Z,75.16
2024-03-05T03:17:09.102Z,75.47
2024-03-05T03:18:09.060Z,75.57
2024-03-05T03:19:09.061Z,75.37
2024-03-05T03:20:09.012Z,75.78
2024-03-05T03:21:09.019Z,75.81
2024-03-05T03:22:08.988Z,76.32
2024-03-05T03:23:09.037Z,76.56
2024-03-05T03:24:08.970Z,76.53
2024-03-05T03:25:08.996Z,76.32
2024-03-05T03:26:09.085Z,75.98
2024-03-05T03:27:09.017Z,75.57
2024-03-05T03:28:09.001Z,75.51
2024-03-05T03:29:08.962Z,75.57
2024-03-05T03:30:08.944Z,75.37
2024-03-05T03:31:08.900Z,75.27
2024-03-05T03:32:08.903Z,75.13
2024-03-05T03:33:08.904Z,74.48
2024-03-05T03:34:08.963Z,74.08
2024-03-05T03:35:08.914Z,73.57
2024-03-05T03:36:08.855Z,73.43
2024-03-05T03:37:08.854Z,73.33
2024-03-05T03:38:08.831Z,72.89
2024-03-05T03:39:08.833Z,72.28
2024-03-05T03:40:08.806Z,72.17
2024-03-05T03:41:08.770Z,72.38
2024-03-05T03:42:08.769Z,72.38
2024-03-05T03:43:08.780Z,72.38
2024-03-05T03:44:08.828Z,72.38
2024-03-05T03:45:08.740Z,72.58
2024-03-05T03:46:08.824Z,72.89
2024-03-05T03:47:08.806Z,72.82
2024-03-05T03:48:08.803Z,73.02
2024-03-05T03:49:08.729Z,72.92
2024-03-05T03:50:08.705Z,73.13
2024-03-05T03:51:08.646Z,72.92
2024-03-05T03:52:08.683Z,72.78
2024-03-05T03:53:08.672Z,72.69
2024-03-05T03:54:08.691Z,72.48
2024-03-05T03:55:08.622Z,72.52
2024-03-05T03:56:08.588Z,73.02
2024-03-05T03:57:08.680Z,73.33
2024-03-05T03:58:08.639Z,73.02
2024-03-05T03:59:08.657Z,72.99
2024-03-05T04:00:08.646Z,72.89
2024-03-05T04:01:08.633Z,72.69
2024-03-05T04:02:08.617Z,72.58
2024-03-05T04:03:08.587Z,72.69
2024-03-05T04:04:08.556Z,72.82
2024-03-05T04:05:08.568Z,72.89
2024-03-05T04:06:08.524Z,72.48
2024-03-05T04:07:08.543Z,72.48
2024-03-05T04:08:08.573Z,72.48
2024-03-05T04:09:08.505Z,72.58
2024-03-05T04:10:08.460Z,72.17
2024-03-05T04:11:08.581Z,72.17
2024-03-05T04:12:08.491Z,72.08
2024-03-05T04:13:08.448Z,72.58
2024-03-05T04:14:08.454Z,72.58
2024-03-05T04:15:08.393Z,72.48
2024-03-05T04:16:08.361Z,72.48
2024-03-05T04:17:08.405Z,72.58
2024-03-05T04:18:08.377Z,72.82
2024-03-05T04:19:08.392Z,72.78
2024-03-05T04:20:08.399Z,72.89
2024-03-05T04:21:08.359Z,72.78
2024-03-05T04:22:08.325Z,72.69
2024-03-05T04:23:08.289Z,73.02
2024-03-05T04:24:08.297Z,73.33
2024-03-05T04:25:08.294Z,73.09
2024-03-05T04:26:08.374Z,72.99
2024-03-05T04:27:08.309Z,72.92
2024-03-05T04:28:08.231Z,73.80
2024-03-05T04:29:08.246Z,74.52
2024-03-05T04:30:08.189Z,75.13
2024-03-05T04:31:08.207Z,74.82
2024-03-05T04:32:08.269Z,74.99
2024-03-05T04:33:08.386Z,74.38
2024-03-05T04:34:08.206Z,74.58
2024-03-05T04:35:08.247Z,74.18
2024-03-05T04:36:08.196Z,73.94
2024-03-05T04:37:08.134Z,74.21
2024-03-05T04:38:09.378Z,74.72
2024-03-05T04:39:08.178Z,74.58
2024-03-05T04:40:08.119Z,74.82
2024-03-05T04:41:08.102Z,75.67
2024-03-05T04:42:08.127Z,75.74
2024-03-05T04:43:08.097Z,75.33
2024-03-05T04:44:08.116Z,75.13
2024-03-05T04:45:08.043Z,75.02
2024-03-05T04:46:08.067Z,75.43
2024-03-05T04:47:08.025Z,74.89
2024-03-05T04:48:08.093Z,74.58
2024-03-05T04:49:08.105Z,74.38
2024-03-05T04:50:08.073Z,74.58
2024-03-05T04:51:07.999Z,74.48
2024-03-05T04:52:07.996Z,74.41
2024-03-05T04:53:08.134Z,75.43
2024-03-05T04:54:07.953Z,75.02
2024-03-05T04:55:07.996Z,75.06
2024-03-05T04:56:08.038Z,75.98
2024-03-05T04:57:07.920Z,76.08
2024-03-05T04:58:07.907Z,76.32
2024-03-05T04:59:07.918Z,77.03
2024-03-05T05:00:07.942Z,76.59
2024-03-05T05:01:07.981Z,75.84
2024-03-05T05:02:07.947Z,75.09
2024-03-05T05:03:07.938Z,74.79
2024-03-05T05:04:07.852Z,74.48
2024-03-05T05:05:07.972Z,74.24
2024-03-05T05:06:07.829Z,73.94
2024-03-05T05:07:07.829Z,73.74
2024-03-05T05:08:07.838Z,74.04
2024-03-05T05:09:07.789Z,73.74
2024-03-05T05:10:07.861Z,73.33
2024-03-05T05:11:07.909Z,74.52
2024-03-05T05:12:07.773Z,74.62
2024-03-05T05:13:07.761Z,75.47
2024-03-05T05:14:07.708Z,76.93
2024-03-05T05:15:07.761Z,76.46
2024-03-05T05:16:07.732Z,78.33
2024-03-05T05:17:07.745Z,78.19
2024-03-05T05:18:07.766Z,77.64
2024-03-05T05:19:08.178Z,76.90
2024-03-05T05:20:07.715Z,77.17
2024-03-05T05:21:07.645Z,77.00
2024-03-05T05:22:07.693Z,76.49
2024-03-05T05:23:07.651Z,76.83
2024-03-05T05:24:07.679Z,76.45
2024-03-05T05:25:07.920Z,75.88
2024-03-05T05:26:07.617Z,75.84
2024-03-05T05:27:07.670Z,75.40
2024-03-05T05:28:07.571Z,75.02
2024-03-05T05:29:07.591Z,74.99
2024-03-05T05:30:09.488Z,74.79
2024-03-05T05:31:08.570Z,74.58
2024-03-05T05:32:07.499Z,74.48
2024-03-05T05:33:07.543Z,74.48
2024-03-05T05:34:07.540Z,74.28
2024-03-05T05:35:07.472Z,74.11
2024-03-05T05:36:07.436Z,74.93
2024-03-05T05:37:07.517Z,74.79
2024-03-05T05:38:07.555Z,74.62
2024-03-05T05:39:07.473Z,75.02
2024-03-05T05:40:07.478Z,74.93
2024-03-05T05:41:07.554Z,74.99
2024-03-05T05:42:07.478Z,74.58
2024-03-05T05:43:07.378Z,74.93
2024-03-05T05:44:07.414Z,75.43
2024-03-05T05:45:07.384Z,74.99
2024-03-05T05:46:07.314Z,74.48
2024-03-05T05:47:07.364Z,74.45
2024-03-05T05:48:07.408Z,73.94
2024-03-05T05:49:07.301Z,74.48
2024-03-05T05:50:07.404Z,74.35
2024-03-05T05:51:07.256Z,74.24
2024-03-05T05:52:07.247Z,73.94
2024-03-05T05:53:07.260Z,73.63
2024-03-05T05:54:07.297Z,74.08
2024-03-05T05:55:07.421Z,74.69
2024-03-05T05:56:07.311Z,74.79
2024-03-05T05:57:07.191Z,74.58
2024-03-05T05:58:07.171Z,74.48
2024-03-05T05:59:07.199Z,74.15
2024-03-05T06:00:07.186Z,73.84
2024-03-05T06:01:07.321Z,73.94
2024-03-05T06:02:07.213Z,73.63
2024-03-05T06:03:07.140Z,73.60
2024-03-05T06:04:07.111Z,73.50
2024-03-05T06:05:07.163Z,73.33
2024-03-05T06:06:07.097Z,73.77
2024-03-05T06:07:09.948Z,74.15
2024-03-05T06:08:07.064Z,73.94
2024-03-05T06:09:07.053Z,73.63
2024-03-05T06:10:07.047Z,73.94
2024-03-05T06:11:07.120Z,74.48
2024-03-05T06:12:07.006Z,74.45
2024-03-05T06:13:07.013Z,74.24
2024-03-05T06:14:07.081Z,73.74
2024-03-05T06:15:06.971Z,73.63
2024-03-05T06:16:07.018Z,73.50
2024-03-05T06:17:07.199Z,73.63
2024-03-05T06:18:07.017Z,74.08
2024-03-05T06:19:06.958Z,75.33
2024-03-05T06:20:07.063Z,75.43
2024-03-05T06:21:06.947Z,75.09
2024-03-05T06:22:06.979Z,74.89
2024-03-05T06:23:07.004Z,74.65
2024-03-05T06:24:06.885Z,74.04
2024-03-05T06:25:06.891Z,74.18
2024-03-05T06:26:06.942Z,74.89
2024-03-05T06:27:06.832Z,74.55
2024-03-05T06:28:06.861Z,74.01
2024-03-05T06:29:06.884Z,73.70
2024-03-05T06:30:06.844Z,73.63
2024-03-05T06:31:06.811Z,74.15
2024-03-05T06:32:06.904Z,74.15
2024-03-05T06:33:06.867Z,74.48
2024-03-05T06:34:06.796Z,75.47
2024-03-05T06:35:06.811Z,76.59
2024-03-05T06:36:06.788Z,76.79
2024-03-05T06:37:06.784Z,76.76
2024-03-05T06:38:06.802Z,76.11
2024-03-05T06:39:06.707Z,75.06
2024-03-05T06:40:06.729Z,74.58
2024-03-05T06:41:06.792Z,74.72
2024-03-05T06:42:06.685Z,75.88
2024-03-05T06:43:06.949Z,76.59
2024-03-05T06:44:06.695Z,76.56
2024-03-05T06:45:06.662Z,76.31
2024-03-05T06:46:06.738Z,75.40
2024-03-05T06:47:06.661Z,74.76
2024-03-05T06:48:12.164Z,74.55
2024-03-05T06:49:07.624Z,74.24
2024-03-05T06:50:06.626Z,74.58
2024-03-05T06:51:06.586Z,75.54
2024-03-05T06:52:07.464Z,75.33
2024-03-05T06:53:06.564Z,76.32
2024-03-05T06:54:06.575Z,77.68
2024-03-05T06:55:06.511Z,77.44
2024-03-05T06:56:06.518Z,77.03
2024-03-05T06:57:06.562Z,77.58
2024-03-05T06:58:06.566Z,77.68
2024-03-05T06:59:06.533Z,77.78
2024-03-05T07:00:06.525Z,77.55
2024-03-05T07:01:06.527Z,77.10
2024-03-05T07:02:06.588Z,76.79
2024-03-05T07:03:06.503Z,76.49
2024-03-05T07:04:06.415Z,76.25
2024-03-05T07:05:06.494Z,75.40
2024-03-05T07:06:06.435Z,74.99
2024-03-05T07:07:06.391Z,74.58
2024-03-05T07:08:06.431Z,74.69
2024-03-05T07:09:06.399Z,74.79
2024-03-05T07:10:06.370Z,74.99
2024-03-05T07:11:06.492Z,75.09
2024-03-05T07:12:06.356Z,75.74
2024-03-05T07:13:06.356Z,76.28
2024-03-05T07:14:06.396Z,76.59
2024-03-05T07:15:06.313Z,76.69
2024-03-05T07:16:06.280Z,76.79
2024-03-05T07:17:06.318Z,76.56
2024-03-05T07:18:06.327Z,75.84
2024-03-05T07:19:06.273Z,76.28
2024-03-05T07:20:06.320Z,77.14
2024-03-05T07:21:06.253Z,77.95
2024-03-05T07:22:06.221Z,78.16
2024-03-05T07:23:06.269Z,77.71
2024-03-05T07:24:06.230Z,77.64
2024-03-05T07:25:06.188Z,77.75
2024-03-05T07:26:07.652Z,78.05
2024-03-05T07:27:09.091Z,78.26
2024-03-05T07:28:06.136Z,77.91
2024-03-05T07:29:06.227Z,77.17
2024-03-05T07:30:06.163Z,75.70
2024-03-05T07:31:06.150Z,75.46
2024-03-05T07:32:06.338Z,75.02
2024-03-05T07:33:06.175Z,74.52
2024-03-05T07:34:06.095Z,73.91
2024-03-05T07:35:06.198Z,73.80
2024-03-05T07:36:06.056Z,74.01
2024-03-05T07:37:06.197Z,74.99
2024-03-05T07:38:06.086Z,76.25
2024-03-05T07:39:06.047Z,76.28
2024-03-05T07:40:06.017Z,76.90
2024-03-05T07:41:14.002Z,76.86
2024-03-05T07:42:07.067Z,76.42
2024-03-05T07:43:05.968Z,75.67
2024-03-05T07:44:06.193Z,75.02
2024-03-05T07:45:05.990Z,74.31
2024-03-05T07:46:06.296Z,74.31
2024-03-05T07:47:06.097Z,74.11
2024-03-05T07:48:05.928Z,74.55
2024-03-05T07:49:05.926Z,74.89
2024-03-05T07:50:05.949Z,75.70
2024-03-05T07:51:05.909Z,76.11
2024-03-05T07:52:05.899Z,75.60
2024-03-05T07:53:06.412Z,75.26
2024-03-05T07:54:05.846Z,75.37
2024-03-05T07:55:05.830Z,76.08
2024-03-05T07:56:05.884Z,77.40
2024-03-05T07:57:05.838Z,77.17
2024-03-05T07:58:05.809Z,78.80
2024-03-05T07:59:05.854Z,78.91
2024-03-05T08:00:05.864Z,79.14
2024-03-05T08:01:05.848Z,80.61
2024-03-05T08:02:05.829Z,79.72
2024-03-05T08:03:05.795Z,78.97
2024-03-05T08:04:05.898Z,78.16
2024-03-05T08:05:05.824Z,78.91
2024-03-05T08:06:05.745Z,78.97
2024-03-05T08:07:05.705Z,78.32
2024-03-05T08:08:05.856Z,77.26
2024-03-05T08:09:05.717Z,76.72
2024-03-05T08:10:05.705Z,75.77
2024-03-05T08:11:05.756Z,75.37
2024-03-05T08:12:05.783Z,75.26
2024-03-05T08:13:05.638Z,75.12
2024-03-05T08:14:05.660Z,74.72
2024-03-05T08:15:05.644Z,73.80
2024-03-05T08:16:05.990Z,74.11
2024-03-05T08:17:05.651Z,74.01
2024-03-05T08:18:05.648Z,74.01
2024-03-05T08:19:05.612Z,73.67
2024-03-05T08:20:05.610Z,73.13
2024-03-05T08:21:05.548Z,72.82
2024-03-05T08:22:05.604Z,73.13
2024-03-05T08:23:05.570Z,72.78
2024-03-05T08:24:05.538Z,72.69
2024-03-05T08:25:05.497Z,72.85
2024-03-05T08:26:05.508Z,73.36
2024-03-05T08:27:05.494Z,73.46
2024-03-05T08:28:05.486Z,73.22
2024-03-05T08:29:05.604Z,72.72
2024-03-05T08:30:05.438Z,73.22
2024-03-05T08:31:05.500Z,72.82
2024-03-05T08:32:05.477Z,72.21
2024-03-05T08:33:05.467Z,72.41
2024-03-05T08:34:05.863Z,72.08
2024-03-05T08:35:05.482Z,71.97
2024-03-05T08:36:05.474Z,72.41
2024-03-05T08:37:05.362Z,71.91
2024-03-05T08:38:05.508Z,73.33
2024-03-05T08:39:05.380Z,74.11
2024-03-05T08:40:05.342Z,73.63
2024-03-05T08:41:05.419Z,74.41
2024-03-05T08:42:05.367Z,73.57
2024-03-05T08:43:05.805Z,72.92
2024-03-05T08:44:05.371Z,72.52
2024-03-05T08:45:06.322Z,72.38
2024-03-05T08:46:05.353Z,71.94
2024-03-05T08:47:05.429Z,71.33
2024-03-05T08:48:05.337Z,71.06
2024-03-05T08:49:05.286Z,71.06
2024-03-05T08:50:05.351Z,71.16
2024-03-05T08:51:05.330Z,71.30
2024-03-05T08:52:05.280Z,71.91
2024-03-05T08:53:05.310Z,71.88
2024-03-05T08:54:05.224Z,71.47
2024-03-05T08:55:05.203Z,71.57
2024-03-05T08:56:05.367Z,71.13
2024-03-05T08:57:05.162Z,70.83
2024-03-05T08:58:05.252Z,71.06
2024-03-05T08:59:05.196Z,71.13
2024-03-05T09:00:16.021Z,72.01
2024-03-05T09:01:06.132Z,71.97
2024-03-05T09:02:05.162Z,71.60
2024-03-05T09:03:05.147Z,72.55
2024-03-05T09:04:05.101Z,73.19
2024-03-05T09:05:05.176Z,73.43
2024-03-05T09:06:05.088Z,74.15
2024-03-05T09:07:05.084Z,73.50
2024-03-05T09:08:05.059Z,73.06
2024-03-05T09:09:05.035Z,72.52
2024-03-05T09:10:05.033Z,71.50
2024-03-05T09:11:05.143Z,70.86
2024-03-05T09:12:05.086Z,70.99
2024-03-05T09:13:05.005Z,71.09
2024-03-05T09:14:05.106Z,71.60
2024-03-05T09:15:04.971Z,71.60
2024-03-05T09:16:04.975Z,71.36
2024-03-05T09:17:05.013Z,71.16
2024-03-05T09:18:05.046Z,70.86
2024-03-05T09:19:05.030Z,70.76
2024-03-05T09:20:04.958Z,71.16
2024-03-05T09:21:04.953Z,70.52
2024-03-05T09:22:04.885Z,70.21
2024-03-05T09:23:04.974Z,69.91
2024-03-05T09:24:04.908Z,70.15
2024-03-05T09:25:04.928Z,70.68
2024-03-05T09:26:04.936Z,71.20
2024-03-05T09:27:04.823Z,70.82
2024-03-05T09:28:04.823Z,71.47
2024-03-05T09:29:04.924Z,72.28
2024-03-05T09:30:04.890Z,72.28
2024-03-05T09:31:04.795Z,72.17
2024-03-05T09:32:04.862Z,71.64
2024-03-05T09:33:04.876Z,72.17
2024-03-05T09:34:04.748Z,71.73
2024-03-05T09:35:04.753Z,71.06
2024-03-05T09:36:04.820Z,70.01
2024-03-05T09:37:04.662Z,69.30
2024-03-05T09:38:04.805Z,69.34
2024-03-05T09:39:04.744Z,69.95
2024-03-05T09:40:05.486Z,69.51
2024-03-05T09:41:04.845Z,69.10
2024-03-05T09:42:04.621Z,69.40
2024-03-05T09:43:04.618Z,69.67
2024-03-05T09:44:04.772Z,70.08
2024-03-05T09:45:04.643Z,70.62
2024-03-05T09:46:04.593Z,70.99
2024-03-05T09:47:04.644Z,70.89
2024-03-05T09:48:04.597Z,70.86
2024-03-05T09:49:11.339Z,71.73
2024-03-05T09:50:05.569Z,71.50
2024-03-05T09:51:04.547Z,71.40
2024-03-05T09:52:04.511Z,71.53
2024-03-05T09:53:04.795Z,72.31
2024-03-05T09:54:04.566Z,73.16
2024-03-05T09:55:04.560Z,73.97
2024-03-05T09:56:04.556Z,73.02
2024-03-05T09:57:04.545Z,72.58
2024-03-05T09:58:04.478Z,72.25
2024-03-05T09:59:04.558Z,72.41
2024-03-05T10:00:04.467Z,74.45
2024-03-05T10:01:04.523Z,74.35
2024-03-05T10:02:04.599Z,73.30
2024-03-05T10:03:04.375Z,73.02
2024-03-05T10:04:04.377Z,72.99
2024-03-05T10:05:04.573Z,72.25
2024-03-05T10:06:04.591Z,72.01
2024-03-05T10:07:04.403Z,71.16
2024-03-05T10:08:04.445Z,71.16
2024-03-05T10:09:04.336Z,70.35
2024-03-05T10:10:04.337Z,70.15
2024-03-05T10:11:04.424Z,70.35
2024-03-05T10:12:04.296Z,70.25
2024-03-05T10:13:04.323Z,70.79
2024-03-05T10:14:04.307Z,71.94
2024-03-05T10:15:04.221Z,71.80
2024-03-05T10:16:04.296Z,71.16
2024-03-05T10:17:04.306Z,70.11
2024-03-05T10:18:05.529Z,70.11
2024-03-05T10:19:04.240Z,70.38
2024-03-05T10:20:04.221Z,71.53
2024-03-05T10:21:04.257Z,71.84
2024-03-05T10:22:04.170Z,71.91
2024-03-05T10:23:04.770Z,71.40
2024-03-05T10:24:04.401Z,71.50
2024-03-05T10:25:04.119Z,71.87
2024-03-05T10:26:04.217Z,72.65
2024-03-05T10:27:04.233Z,71.80
2024-03-05T10:28:04.082Z,72.25
2024-03-05T10:29:04.127Z,72.55
2024-03-05T10:30:04.055Z,71.91
2024-03-05T10:31:04.058Z,72.01
2024-03-05T10:32:04.213Z,71.70
2024-03-05T10:33:04.067Z,72.08
2024-03-05T10:34:04.021Z,73.30
2024-03-05T10:35:04.266Z,72.89
2024-03-05T10:36:04.019Z,73.30
2024-03-05T10:37:03.966Z,72.99
2024-03-05T10:38:04.009Z,72.85
2024-03-05T10:39:03.970Z,72.41
2024-03-05T10:40:04.025Z,71.88
2024-03-05T10:41:04.029Z,71.16
2024-03-05T10:42:04.145Z,71.77
2024-03-05T10:43:03.979Z,71.26
2024-03-05T10:44:03.914Z,71.26
2024-03-05T10:45:03.913Z,71.06
2024-03-05T10:46:03.993Z,70.92
2024-03-05T10:47:04.186Z,70.86
2024-03-05T10:48:03.904Z,71.33
2024-03-05T10:49:03.850Z,70.92
2024-03-05T10:50:03.984Z,71.36
2024-03-05T10:51:04.532Z,71.50
2024-03-05T10:52:03.807Z,71.53
2024-03-05T10:53:03.873Z,72.25
2024-03-05T10:54:03.816Z,72.96
2024-03-05T10:55:06.315Z,73.74
2024-03-05T10:56:03.871Z,73.19
2024-03-05T10:57:03.797Z,72.45
2024-03-05T10:58:03.982Z,72.96
2024-03-05T10:59:03.754Z,73.26
2024-03-05T11:00:03.791Z,72.78
2024-03-05T11:01:03.746Z,71.94
2024-03-05T11:02:03.762Z,71.73
2024-03-05T11:03:03.728Z,71.67
2024-03-05T11:04:03.712Z,71.06
2024-03-05T11:05:03.675Z,71.70
2024-03-05T11:06:03.646Z,72.01
2024-03-05T11:07:03.671Z,72.55
2024-03-05T11:08:03.689Z,72.01
2024-03-05T11:09:03.620Z,71.97
2024-03-05T11:10:03.617Z,71.94
2024-03-05T11:11:04.037Z,72.01
2024-03-05T11:12:03.656Z,72.14
2024-03-05T11:13:03.581Z,72.04
2024-03-05T11:14:03.591Z,71.50
2024-03-05T11:15:03.622Z,70.92
2024-03-05T11:16:03.512Z,71.00
2024-03-05T11:17:03.576Z,70.39
2024-03-05T11:18:03.571Z,71.03
2024-03-05T11:19:03.518Z,71.67
2024-03-05T11:20:03.567Z,71.57
2024-03-05T11:21:03.668Z,72.11
2024-03-05T11:22:03.479Z,72.38
2024-03-05T11:23:03.582Z,71.64
2024-03-05T11:24:03.492Z,70.89
2024-03-05T11:25:03.450Z,70.56
2024-03-05T11:26:03.475Z,70.05
2024-03-05T11:27:03.494Z,70.12
2024-03-05T11:28:03.380Z,69.74
2024-03-05T11:29:03.508Z,70.15
2024-03-05T11:30:03.413Z,70.05
2024-03-05T11:31:03.406Z,70.12
2024-03-05T11:32:03.485Z,69.91
2024-03-05T11:33:03.431Z,70.69
2024-03-05T11:34:03.359Z,70.59
2024-03-05T11:35:03.629Z,70.56
2024-03-05T11:36:03.426Z,69.51
2024-03-05T11:37:05.241Z,68.93
2024-03-05T11:38:03.420Z,70.15
2024-03-05T11:39:03.268Z,70.69
2024-03-05T11:40:03.271Z,69.88
2024-03-05T11:41:03.404Z,70.39
2024-03-05T11:42:03.323Z,70.72
2024-03-05T11:43:03.219Z,69.60
2024-03-05T11:44:04.601Z,70.42
2024-03-05T11:45:03.470Z,70.89
2024-03-05T11:46:03.218Z,71.47
2024-03-05T11:47:03.325Z,70.89
2024-03-05T11:48:03.306Z,70.39
2024-03-05T11:49:03.371Z,70.21
2024-03-05T11:50:03.274Z,69.92
2024-03-05T11:51:03.145Z,69.84
2024-03-05T11:52:03.141Z,69.74
2024-03-05T11:53:03.203Z,70.39
2024-03-05T11:54:03.104Z,69.84
2024-03-05T11:55:03.093Z,69.95
2024-03-05T11:56:03.090Z,70.18
2024-03-05T11:57:03.100Z,70.89
2024-03-05T11:58:03.098Z,70.28
2024-03-05T11:59:03.086Z,70.86
2024-03-05T12:00:03.018Z,70.69
2024-03-05T12:01:03.024Z,70.45
2024-03-05T12:02:03.315Z,70.56
2024-03-05T12:03:03.068Z,70.72
2024-03-05T12:04:03.026Z,70.93
2024-03-05T12:05:03.190Z,70.52
2024-03-05T12:06:02.930Z,71.44
2024-03-05T12:07:04.639Z,71.50
2024-03-05T12:08:03.021Z,70.86
2024-03-05T12:09:02.902Z,70.15
2024-03-05T12:10:02.978Z,70.39
2024-03-05T12:11:03.070Z,70.05
2024-03-05T12:12:02.886Z,69.51
2024-03-05T12:13:02.903Z,69.27
2024-03-05T12:14:03.037Z,69.07
2024-03-05T12:15:05.514Z,68.23
2024-03-05T12:16:03.389Z,68.94
2024-03-05T12:17:02.982Z,69.81
2024-03-05T12:18:02.963Z,70.83
2024-03-05T12:19:02.844Z,70.69
2024-03-05T12:20:02.990Z,69.98
2024-03-05T12:21:03.018Z,70.08
2024-03-05T12:22:02.796Z,70.08
2024-03-05T12:23:02.857Z,70.01
2024-03-05T12:24:02.773Z,69.51
2024-03-05T12:25:02.736Z,69.51
2024-03-05T12:26:02.816Z,70.35
2024-03-05T12:27:02.731Z,71.64
2024-03-05T12:28:02.762Z,71.16
2024-03-05T12:29:03.939Z,72.28
2024-03-05T12:30:03.214Z,72.69
2024-03-05T12:31:02.661Z,72.58
2024-03-05T12:32:02.738Z,72.92
2024-03-05T12:33:03.053Z,72.92
2024-03-05T12:34:02.638Z,72.96
2024-03-05T12:35:02.664Z,71.91
2024-03-05T12:36:02.624Z,70.35
2024-03-05T12:37:02.622Z,69.81
2024-03-05T12:38:02.608Z,68.97
2024-03-05T12:39:02.600Z,68.36
2024-03-05T12:40:02.545Z,68.46
2024-03-05T12:41:02.762Z,68.06
2024-03-05T12:42:02.711Z,68.63
2024-03-05T12:43:02.564Z,70.62
2024-03-05T12:44:02.534Z,71.47
2024-03-05T12:45:02.539Z,71.88
2024-03-05T12:46:02.497Z,72.04
2024-03-05T12:47:02.497Z,71.80
2024-03-05T12:48:04.890Z,71.50
2024-03-05T12:49:02.523Z,72.08
2024-03-05T12:50:02.726Z,73.63
2024-03-05T12:51:02.513Z,74.21
2024-03-05T12:52:02.434Z,73.90